Time;durP1;ratioP1;P1;durP2;ratioP2;P2;SDS_P1;SDS_P2;PMS_P1;PMS_P2;Temp;Humidity;BMP_temperature;BMP_pressure;BME280_temperature;BME280_humidity;BME280_pressure;Samples;Min_cycle;Max_cycle;Signal;HPM_P1;HPM_P2
2024/01/20 00:00:32;;;;;;;4.65;2.97;;;-0.20;99.90;;;;;;5080041;28;20052;-74
2024/01/20 00:02:57;;;;;;;10.40;4.03;;;-0.20;99.90;;;;;;5074002;28;20045;-74
2024/01/20 00:05:23;;;;;;;5.75;3.15;;;-0.10;99.90;;;;;;5047019;28;20442;-74
2024/01/20 00:07:48;;;;;;;8.20;4.30;;;-0.20;99.90;;;;;;5058948;28;20059;-74
2024/01/20 00:10:14;;;;;;;6.18;4.45;;;-0.20;99.90;;;;;;5080907;28;20082;-74
2024/01/20 00:12:42;;;;;;;10.13;4.40;;;-0.20;99.90;;;;;;5083527;28;20128;-74
2024/01/20 00:15:08;;;;;;;7.45;4.20;;;-0.20;99.90;;;;;;5067276;28;20091;-74
2024/01/20 00:17:35;;;;;;;10.60;5.05;;;-0.20;99.90;;;;;;5080737;28;20051;-74
2024/01/20 00:20:01;;;;;;;9.18;4.15;;;-0.20;99.90;;;;;;5077924;28;20041;-74
2024/01/20 00:22:27;;;;;;;7.45;4.45;;;-0.20;99.90;;;;;;5074914;28;20056;-74
2024/01/20 00:24:53;;;;;;;4.72;4.25;;;-0.20;99.90;;;;;;5074674;28;20531;-74
2024/01/20 00:27:19;;;;;;;14.50;5.13;;;-0.20;99.90;;;;;;5040953;28;20047;-74
2024/01/20 00:29:44;;;;;;;7.80;4.40;;;-0.20;99.90;;;;;;5059802;28;20069;-74
2024/01/20 00:32:10;;;;;;;16.23;5.38;;;-0.20;99.90;;;;;;5070932;28;20093;-74
2024/01/20 00:34:36;;;;;;;8.63;4.13;;;-0.20;99.90;;;;;;5081842;28;20067;-74
2024/01/20 00:37:03;;;;;;;11.70;4.35;;;-0.20;99.90;;;;;;5046308;28;20037;-74
2024/01/20 00:39:29;;;;;;;7.85;4.82;;;-0.20;99.90;;;;;;5068758;28;20135;-74
2024/01/20 00:41:55;;;;;;;6.93;4.45;;;-0.20;99.90;;;;;;5083251;28;20072;-73
2024/01/20 00:44:20;;;;;;;9.43;4.82;;;-0.30;99.90;;;;;;5080601;28;20067;-74
2024/01/20 00:46:46;;;;;;;12.07;5.63;;;-0.30;99.90;;;;;;5086306;28;20040;-74
2024/01/20 00:49:12;;;;;;;8.38;4.68;;;-0.30;99.90;;;;;;5080911;28;20096;-74
2024/01/20 00:51:37;;;;;;;8.60;4.22;;;-0.20;99.90;;;;;;5080664;28;20539;-74
2024/01/20 00:54:03;;;;;;;14.75;4.43;;;-0.20;99.90;;;;;;5076956;28;20049;-74
2024/01/20 00:56:29;;;;;;;10.52;5.20;;;-0.20;99.90;;;;;;5059644;28;20091;-74
2024/01/20 00:58:54;;;;;;;5.47;3.00;;;-0.20;99.90;;;;;;5049220;28;20033;-74
2024/01/20 01:01:20;;;;;;;15.23;4.90;;;-0.10;99.90;;;;;;5072989;28;20037;-74
2024/01/20 01:03:46;;;;;;;7.60;5.63;;;-0.20;99.90;;;;;;5079490;28;20064;-74
2024/01/20 01:06:11;;;;;;;11.10;5.93;;;-0.20;99.90;;;;;;5058026;28;20487;-74
2024/01/20 01:08:37;;;;;;;10.05;5.93;;;-0.20;99.90;;;;;;5064487;28;20037;-75
2024/01/20 01:11:03;;;;;;;10.85;6.05;;;-0.20;99.90;;;;;;5060514;28;20523;-74
2024/01/20 01:13:29;;;;;;;5.50;3.72;;;-0.20;99.90;;;;;;5043834;28;20519;-74
2024/01/20 01:15:54;;;;;;;10.35;5.32;;;-0.10;99.90;;;;;;5048802;28;20041;-74
2024/01/20 01:18:20;;;;;;;6.93;4.82;;;-0.10;99.90;;;;;;5059388;28;20041;-74
2024/01/20 01:20:46;;;;;;;7.88;5.05;;;-0.10;99.90;;;;;;5042862;28;20398;-74
2024/01/20 01:23:12;;;;;;;9.25;4.88;;;-0.10;99.90;;;;;;5050099;28;20595;-74
2024/01/20 01:25:38;;;;;;;12.50;5.35;;;-0.10;99.90;;;;;;5058856;28;20059;-74
2024/01/20 01:28:04;;;;;;;8.50;5.72;;;-0.10;99.90;;;;;;5060768;28;20041;-74
2024/01/20 01:30:29;;;;;;;18.38;5.85;;;-0.10;99.90;;;;;;5054977;28;20109;-74
2024/01/20 01:32:55;;;;;;;14.95;6.80;;;0.00;99.90;;;;;;5075662;28;20025;-74
2024/01/20 01:35:21;;;;;;;8.38;4.63;;;0.00;99.90;;;;;;5058973;28;20063;-74
2024/01/20 01:37:47;;;;;;;12.15;5.00;;;0.00;99.90;;;;;;5060912;28;20083;-74
2024/01/20 01:40:13;;;;;;;8.60;5.65;;;0.00;99.90;;;;;;5058590;28;20041;-74
2024/01/20 01:42:38;;;;;;;6.90;5.07;;;0.00;99.90;;;;;;5052119;28;20041;-74
2024/01/20 01:45:04;;;;;;;10.95;6.30;;;0.00;99.90;;;;;;5057415;28;20369;-75
2024/01/20 01:47:30;;;;;;;10.07;6.05;;;0.10;99.90;;;;;;5054117;28;20029;-74
2024/01/20 01:49:56;;;;;;;10.60;5.28;;;0.00;99.90;;;;;;5043164;28;20142;-75
2024/01/20 01:52:23;;;;;;;11.20;4.55;;;0.10;99.90;;;;;;5056465;28;20165;-75
2024/01/20 01:54:51;;;;;;;9.55;4.95;;;0.10;99.90;;;;;;5031284;28;20059;-75
2024/01/20 01:57:17;;;;;;;9.45;5.70;;;0.00;99.90;;;;;;5057550;28;20435;-75
2024/01/20 01:59:44;;;;;;;10.05;6.15;;;0.00;99.90;;;;;;5051346;28;20033;-75
2024/01/20 02:02:10;;;;;;;13.13;6.15;;;0.10;99.90;;;;;;5050244;28;20045;-74
2024/01/20 02:04:36;;;;;;;10.80;7.30;;;0.00;99.90;;;;;;5054334;28;20533;-74
2024/01/20 02:07:02;;;;;;;11.20;6.95;;;0.10;99.90;;;;;;5041364;28;20041;-74
2024/01/20 02:09:29;;;;;;;9.98;5.90;;;0.00;99.90;;;;;;5058108;28;20106;-74
2024/01/20 02:11:55;;;;;;;8.75;5.32;;;0.00;99.90;;;;;;5057770;28;20104;-74
2024/01/20 02:14:22;;;;;;;12.98;6.45;;;0.00;99.90;;;;;;5058309;28;20041;-75
2024/01/20 02:16:47;;;;;;;15.20;6.13;;;0.00;99.90;;;;;;5068983;28;20048;-75
2024/01/20 02:19:13;;;;;;;16.13;8.10;;;0.00;99.90;;;;;;5061123;28;20071;-75
2024/01/20 02:21:41;;;;;;;10.70;6.00;;;0.00;99.90;;;;;;5073788;28;20122;-74
2024/01/20 02:24:09;;;;;;;9.27;6.32;;;0.00;99.90;;;;;;5086105;28;20079;-74
2024/01/20 02:26:34;;;;;;;19.67;7.68;;;0.00;99.90;;;;;;5087825;28;20045;-75
2024/01/20 02:29:00;;;;;;;16.02;5.15;;;0.00;99.90;;;;;;5024247;28;20071;-75
2024/01/20 02:31:26;;;;;;;12.00;6.35;;;0.00;99.90;;;;;;5056150;28;20052;-74
2024/01/20 02:33:51;;;;;;;12.30;6.13;;;-0.10;99.90;;;;;;5041876;28;20044;-75
2024/01/20 02:36:17;;;;;;;8.75;6.25;;;-0.10;99.90;;;;;;5068935;28;20420;-75
2024/01/20 02:38:43;;;;;;;12.35;6.60;;;-0.10;99.90;;;;;;5069465;28;20103;-74
2024/01/20 02:41:08;;;;;;;9.05;6.40;;;-0.10;99.90;;;;;;5070820;28;20072;-75
2024/01/20 02:43:34;;;;;;;13.82;5.95;;;-0.20;99.90;;;;;;5079024;28;20469;-75
2024/01/20 02:46:00;;;;;;;12.20;6.55;;;-0.20;99.90;;;;;;5079759;28;20036;-75
2024/01/20 02:48:25;;;;;;;15.82;7.72;;;-0.10;99.90;;;;;;5060976;28;20138;-75
2024/01/20 02:50:51;;;;;;;14.88;7.25;;;-0.20;99.90;;;;;;5068182;28;20048;-75
2024/01/20 02:53:17;;;;;;;9.52;6.00;;;-0.20;99.90;;;;;;5045123;28;20079;-75
2024/01/20 02:55:42;;;;;;;17.77;6.72;;;-0.20;99.90;;;;;;5078611;28;20040;-75
2024/01/20 02:58:08;;;;;;;12.80;5.60;;;-0.20;99.90;;;;;;5078407;28;20052;-75
2024/01/20 03:00:34;;;;;;;11.15;6.55;;;-0.20;99.90;;;;;;5064611;28;20049;-75
2024/01/20 03:02:59;;;;;;;13.88;7.70;;;-0.20;99.90;;;;;;5068145;28;20049;-75
2024/01/20 03:05:25;;;;;;;9.77;6.03;;;-0.20;99.90;;;;;;5066450;28;20041;-74
2024/01/20 03:07:51;;;;;;;15.48;6.60;;;-0.20;99.90;;;;;;5067825;28;20103;-75
2024/01/20 03:10:16;;;;;;;9.63;7.13;;;-0.30;99.90;;;;;;5060401;28;20489;-75
2024/01/20 03:12:42;;;;;;;11.60;5.95;;;-0.30;99.90;;;;;;5054015;28;20041;-74
2024/01/20 03:15:08;;;;;;;18.30;7.32;;;-0.30;99.90;;;;;;5075450;28;20052;-75
2024/01/20 03:17:34;;;;;;;12.93;6.75;;;-0.40;99.90;;;;;;5091408;28;20076;-74
2024/01/20 03:20:00;;;;;;;16.80;10.10;;;-0.40;99.90;;;;;;5065725;28;20091;-75
2024/01/20 03:22:25;;;;;;;12.20;5.80;;;-0.50;99.90;;;;;;5059081;28;20131;-74
2024/01/20 03:24:51;;;;;;;12.90;5.70;;;-0.40;99.90;;;;;;5032116;28;20038;-74
2024/01/20 03:27:18;;;;;;;12.77;6.45;;;-0.50;99.90;;;;;;5052477;28;20045;-74
2024/01/20 03:29:43;;;;;;;14.10;8.02;;;-0.60;99.90;;;;;;5064291;28;20036;-74
2024/01/20 03:32:10;;;;;;;7.43;5.72;;;-0.60;99.90;;;;;;5074236;28;20052;-74
2024/01/20 03:34:36;;;;;;;13.90;7.07;;;-0.60;99.90;;;;;;5063059;28;20519;-74
2024/01/20 03:37:02;;;;;;;12.27;6.03;;;-0.60;99.90;;;;;;5060764;28;20110;-74
2024/01/20 03:39:28;;;;;;;15.73;7.07;;;-0.60;99.90;;;;;;5047879;28;20462;-75
2024/01/20 03:41:54;;;;;;;11.77;6.50;;;-0.70;99.90;;;;;;5059195;28;20048;-74
2024/01/20 03:44:20;;;;;;;15.70;6.57;;;-0.70;99.90;;;;;;5044508;28;20484;-74
2024/01/20 03:46:46;;;;;;;12.50;6.88;;;-0.70;99.90;;;;;;5081524;28;20076;-74
2024/01/20 03:49:12;;;;;;;11.48;6.75;;;-0.60;99.90;;;;;;5046133;28;20116;-74
2024/01/20 03:51:38;;;;;;;18.95;7.72;;;-0.60;99.90;;;;;;5041953;28;1103111;-74
2024/01/20 03:54:04;;;;;;;11.70;6.72;;;-0.60;99.90;;;;;;5082604;28;20517;-74
2024/01/20 03:56:30;;;;;;;10.55;6.45;;;-0.50;99.90;;;;;;5060830;28;20037;-75
2024/01/20 03:58:56;;;;;;;9.10;4.32;;;-0.50;99.90;;;;;;5072179;28;20076;-74
2024/01/20 04:01:22;;;;;;;17.35;6.78;;;-0.50;99.90;;;;;;5057154;28;20033;-74
2024/01/20 04:03:47;;;;;;;13.00;6.95;;;-0.50;99.90;;;;;;5080845;28;20040;-74
2024/01/20 04:06:13;;;;;;;10.68;5.78;;;-0.40;99.90;;;;;;5068234;28;20072;-75
2024/01/20 04:08:39;;;;;;;12.77;6.22;;;-0.50;99.90;;;;;;5073739;28;20051;-75
2024/01/20 04:11:05;;;;;;;18.38;7.20;;;-0.40;99.90;;;;;;5080787;28;20044;-75
2024/01/20 04:13:31;;;;;;;14.32;7.50;;;-0.50;99.90;;;;;;5067617;28;20040;-74
2024/01/20 04:15:56;;;;;;;14.25;8.02;;;-0.50;99.90;;;;;;5056242;28;20831;-74
2024/01/20 04:18:22;;;;;;;10.40;6.57;;;-0.60;99.90;;;;;;5048939;28;20049;-75
2024/01/20 04:20:48;;;;;;;23.25;9.00;;;-0.60;99.90;;;;;;5072862;28;20060;-75
2024/01/20 04:23:13;;;;;;;21.38;10.38;;;-0.70;99.90;;;;;;5074745;28;20048;-75
2024/01/20 04:25:39;;;;;;;11.27;6.28;;;-0.70;99.90;;;;;;5073418;28;20036;-75
2024/01/20 04:28:05;;;;;;;18.73;8.18;;;-0.70;99.90;;;;;;5072110;28;20093;-75
2024/01/20 04:30:31;;;;;;;15.40;5.85;;;-0.80;99.90;;;;;;5066151;28;20040;-75
2024/01/20 04:32:56;;;;;;;15.15;8.40;;;-0.70;99.90;;;;;;5079962;28;20059;-74
2024/01/20 04:35:22;;;;;;;15.38;7.50;;;-0.80;99.90;;;;;;5069207;28;20049;-74
2024/01/20 04:37:48;;;;;;;24.55;8.27;;;-0.80;99.90;;;;;;5043910;28;20064;-74
2024/01/20 04:40:13;;;;;;;27.50;9.13;;;-0.80;99.90;;;;;;5089653;28;20049;-74
2024/01/20 04:42:39;;;;;;;17.58;7.63;;;-0.80;99.90;;;;;;5048367;28;20057;-75
2024/01/20 04:45:06;;;;;;;14.13;8.05;;;-0.90;99.90;;;;;;5073960;28;20134;-74
2024/01/20 04:47:33;;;;;;;13.75;6.95;;;-0.80;99.90;;;;;;5076940;28;20047;-75
2024/01/20 04:49:58;;;;;;;21.17;7.75;;;-0.90;99.90;;;;;;5079768;28;20074;-75
2024/01/20 04:52:24;;;;;;;12.30;7.72;;;-0.90;99.90;;;;;;5068637;28;20049;-75
2024/01/20 04:54:52;;;;;;;13.18;7.18;;;-0.90;99.90;;;;;;5076699;28;20040;-75
2024/01/20 04:57:19;;;;;;;10.02;4.90;;;-1.00;99.90;;;;;;5073165;28;20045;-75
2024/01/20 04:59:45;;;;;;;20.90;9.85;;;-1.00;99.90;;;;;;5061841;28;20037;-74
2024/01/20 05:02:11;;;;;;;22.35;10.23;;;-1.00;99.90;;;;;;5079571;28;20063;-74
2024/01/20 05:04:36;;;;;;;22.63;6.10;;;-1.00;99.90;;;;;;5081107;28;20040;-74
2024/01/20 05:07:02;;;;;;;13.65;7.40;;;-1.00;99.90;;;;;;5080922;28;20032;-74
2024/01/20 05:09:28;;;;;;;16.30;7.35;;;-1.00;99.90;;;;;;5058496;28;20053;-75
2024/01/20 05:11:53;;;;;;;16.27;9.38;;;-1.00;99.90;;;;;;5061416;28;20086;-74
2024/01/20 05:14:19;;;;;;;19.15;7.95;;;-1.00;99.90;;;;;;5070561;28;20616;-74
2024/01/20 05:16:44;;;;;;;17.85;7.90;;;-1.00;99.90;;;;;;5075056;28;20067;-74
2024/01/20 05:19:10;;;;;;;14.63;7.60;;;-1.10;99.90;;;;;;5060797;28;20033;-75
2024/01/20 05:21:37;;;;;;;11.45;6.78;;;-1.00;99.90;;;;;;5081114;28;20075;-75
2024/01/20 05:24:04;;;;;;;17.58;8.57;;;-1.10;99.90;;;;;;5066442;28;20052;-74
2024/01/20 05:26:30;;;;;;;17.42;8.80;;;-1.10;99.90;;;;;;5058930;28;20060;-75
2024/01/20 05:28:56;;;;;;;19.02;6.40;;;-1.10;99.90;;;;;;5061307;28;20029;-75
2024/01/20 05:31:24;;;;;;;14.13;6.05;;;-1.10;99.90;;;;;;5060368;28;20054;-74
2024/01/20 05:33:50;;;;;;;13.85;6.72;;;-1.10;99.90;;;;;;5059463;28;20537;-75
2024/01/20 05:36:16;;;;;;;20.88;7.70;;;-1.10;99.90;;;;;;5078166;28;20062;-74
2024/01/20 05:38:41;;;;;;;16.40;8.40;;;-1.10;99.90;;;;;;5065413;28;20077;-75
2024/01/20 05:41:08;;;;;;;12.52;6.57;;;-1.10;99.90;;;;;;5062003;28;20051;-75
2024/01/20 05:43:34;;;;;;;21.38;6.95;;;-1.10;99.90;;;;;;5052186;28;20511;-75
2024/01/20 05:46:04;;;;;;;17.50;8.02;;;-1.10;99.90;;;;;;5038509;28;20327;-75
2024/01/20 05:48:30;;;;;;;13.15;7.53;;;-1.10;99.90;;;;;;5067227;28;20052;-75
2024/01/20 05:50:56;;;;;;;10.50;5.22;;;-1.10;99.90;;;;;;5041069;28;20045;-75
2024/01/20 05:53:22;;;;;;;14.23;5.53;;;-1.00;99.90;;;;;;5073362;28;20072;-75
2024/01/20 05:55:47;;;;;;;12.00;7.13;;;-1.00;99.90;;;;;;5070400;28;20040;-75
2024/01/20 05:58:14;;;;;;;17.17;8.65;;;-1.00;99.90;;;;;;5078473;28;20040;-75
2024/01/20 06:00:40;;;;;;;16.42;7.63;;;-1.00;99.90;;;;;;5064653;28;20585;-75
2024/01/20 06:03:06;;;;;;;20.08;6.18;;;-1.00;99.90;;;;;;5074717;28;20399;-75
2024/01/20 06:05:32;;;;;;;23.08;8.25;;;-1.00;99.90;;;;;;5079483;28;20028;-75
2024/01/20 06:07:58;;;;;;;19.60;9.02;;;-1.00;99.90;;;;;;5063549;28;20109;-75
2024/01/20 06:10:24;;;;;;;20.38;7.40;;;-1.00;99.90;;;;;;5055173;28;20033;-75
2024/01/20 06:12:50;;;;;;;14.40;6.47;;;-1.00;99.90;;;;;;5073186;28;20037;-75
2024/01/20 06:15:16;;;;;;;25.35;7.28;;;-1.00;99.90;;;;;;5078306;28;20558;-75
2024/01/20 06:17:41;;;;;;;17.48;7.28;;;-1.00;99.90;;;;;;5065380;28;20136;-75
2024/01/20 06:20:07;;;;;;;13.73;5.50;;;-1.00;99.90;;;;;;5067205;28;20036;-75
2024/01/20 06:22:33;;;;;;;15.27;8.25;;;-1.00;99.90;;;;;;5070961;28;20055;-75
2024/01/20 06:24:59;;;;;;;14.50;6.20;;;-1.00;99.90;;;;;;5064161;28;20049;-75
2024/01/20 06:27:24;;;;;;;15.32;7.55;;;-1.10;99.90;;;;;;5061086;28;20037;-75
2024/01/20 06:29:50;;;;;;;15.80;6.50;;;-1.10;99.90;;;;;;5079799;28;20048;-75
2024/01/20 06:32:16;;;;;;;19.17;6.47;;;-1.10;99.90;;;;;;5071176;28;20084;-75
2024/01/20 06:34:42;;;;;;;17.30;8.30;;;-1.10;99.90;;;;;;5072531;28;20096;-75
2024/01/20 06:37:07;;;;;;;13.30;6.88;;;-1.10;99.90;;;;;;5028565;28;20045;-75
2024/01/20 06:39:33;;;;;;;19.90;7.68;;;-1.10;99.90;;;;;;5094245;28;20036;-75
2024/01/20 06:41:59;;;;;;;14.45;6.88;;;-1.10;99.90;;;;;;5040821;28;20191;-75
2024/01/20 06:44:24;;;;;;;22.02;8.82;;;-1.10;99.90;;;;;;5071524;28;20105;-75
2024/01/20 06:46:50;;;;;;;14.68;6.97;;;-1.10;99.90;;;;;;5067300;28;20052;-75
2024/01/20 06:49:16;;;;;;;22.40;7.75;;;-1.10;99.90;;;;;;5078067;28;20402;-75
2024/01/20 06:51:45;;;;;;;12.45;4.38;;;-1.10;99.90;;;;;;5072928;28;20139;-75
2024/01/20 06:54:11;;;;;;;16.08;7.88;;;-1.10;99.90;;;;;;5073231;28;20037;-75
2024/01/20 06:56:36;;;;;;;17.65;8.45;;;-1.10;99.90;;;;;;5073805;28;20178;-75
2024/01/20 06:59:02;;;;;;;11.95;6.38;;;-1.10;99.90;;;;;;5062484;28;20492;-75
2024/01/20 07:01:27;;;;;;;14.93;4.53;;;-1.20;99.90;;;;;;5038154;28;20096;-75
2024/01/20 07:03:53;;;;;;;16.40;7.32;;;-1.20;99.90;;;;;;5066714;28;20055;-75
2024/01/20 07:06:23;;;;;;;10.85;6.68;;;-1.20;99.90;;;;;;5059409;28;20045;-75
2024/01/20 07:08:49;;;;;;;24.77;6.60;;;-1.20;99.90;;;;;;5059852;28;20044;-75
2024/01/20 07:11:15;;;;;;;15.15;8.30;;;-1.20;99.90;;;;;;5057032;28;20049;-75
2024/01/20 07:13:40;;;;;;;26.40;7.15;;;-1.30;99.90;;;;;;5072081;28;20075;-75
2024/01/20 07:16:15;;;;;;;16.70;7.03;;;-1.30;99.90;;;;;;5043423;28;20075;-76
2024/01/20 07:18:40;;;;;;;13.10;6.78;;;-1.30;99.90;;;;;;5075281;28;20046;-76
2024/01/20 07:21:07;;;;;;;20.73;6.65;;;-1.30;99.90;;;;;;5069305;28;20080;-75
2024/01/20 07:23:33;;;;;;;17.00;6.53;;;-1.30;99.90;;;;;;5055911;28;20048;-75
2024/01/20 07:25:59;;;;;;;13.63;4.80;;;-1.30;99.90;;;;;;5062393;28;20048;-75
2024/01/20 07:28:28;;;;;;;21.85;6.82;;;-1.30;99.90;;;;;;5068975;28;20041;-75
2024/01/20 07:30:53;;;;;;;11.88;5.97;;;-1.30;99.90;;;;;;5073829;28;20041;-76
2024/01/20 07:33:19;;;;;;;19.52;6.82;;;-1.30;99.90;;;;;;5079116;28;20468;-76
2024/01/20 07:35:45;;;;;;;9.32;5.30;;;-1.30;99.90;;;;;;5076434;28;20499;-75
2024/01/20 07:38:11;;;;;;;10.85;3.90;;;-1.30;99.90;;;;;;5077349;28;20044;-75
2024/01/20 07:40:37;;;;;;;24.75;8.00;;;-1.20;99.90;;;;;;5078842;28;20060;-75
2024/01/20 07:43:03;;;;;;;21.23;7.60;;;-1.30;99.90;;;;;;5063475;28;20411;-76
2024/01/20 07:45:30;;;;;;;14.73;6.38;;;-1.30;99.90;;;;;;5066335;28;20084;-76
2024/01/20 07:47:56;;;;;;;14.52;9.10;;;-1.30;99.90;;;;;;5056941;28;20130;-75
2024/01/20 07:50:21;;;;;;;18.67;7.68;;;-1.30;99.90;;;;;;5077884;28;20100;-75
2024/01/20 07:52:47;;;;;;;18.10;7.57;;;-1.30;99.90;;;;;;5078018;28;20053;-76
2024/01/20 07:55:13;;;;;;;14.57;6.25;;;-1.20;99.90;;;;;;5071933;28;20060;-76
2024/01/20 07:57:39;;;;;;;10.98;5.22;;;-1.20;99.90;;;;;;5070173;28;20044;-76
2024/01/20 08:00:06;;;;;;;13.13;7.07;;;-1.20;99.90;;;;;;5049258;28;20036;-76
2024/01/20 08:02:32;;;;;;;13.25;6.07;;;-1.10;99.90;;;;;;5064818;28;20398;-76
2024/01/20 08:04:58;;;;;;;18.92;8.18;;;-1.10;99.90;;;;;;5057409;28;20064;-76
2024/01/20 08:07:24;;;;;;;16.50;6.07;;;-1.00;99.90;;;;;;5057713;28;20105;-76
2024/01/20 08:09:49;;;;;;;11.98;5.13;;;-1.00;99.90;;;;;;5057863;28;20040;-76
2024/01/20 08:12:15;;;;;;;11.05;5.28;;;-0.90;99.90;;;;;;5074954;28;20039;-76
2024/01/20 08:14:41;;;;;;;23.17;10.35;;;-0.80;99.90;;;;;;5074165;28;20045;-76
2024/01/20 08:17:07;;;;;;;10.82;6.40;;;-0.70;99.90;;;;;;5054235;28;20224;-76
2024/01/20 08:19:32;;;;;;;23.95;8.70;;;-0.70;99.90;;;;;;5060528;28;20128;-76
2024/01/20 08:21:58;;;;;;;14.75;6.97;;;-0.60;99.90;;;;;;5064506;28;20071;-76
2024/01/20 08:24:24;;;;;;;14.07;5.95;;;-0.60;99.90;;;;;;5082383;28;20068;-76
2024/01/20 08:26:49;;;;;;;25.85;9.07;;;-0.40;99.90;;;;;;5061858;28;20116;-76
2024/01/20 08:29:17;;;;;;;13.63;7.50;;;-0.30;99.90;;;;;;5056189;28;20040;-76
2024/01/20 08:31:42;;;;;;;16.20;7.10;;;-0.20;99.90;;;;;;5070713;28;20051;-76
2024/01/20 08:34:08;;;;;;;14.32;7.35;;;-0.20;99.90;;;;;;5072716;28;20097;-76
2024/01/20 08:36:34;;;;;;;23.83;8.05;;;-0.10;99.90;;;;;;5060951;28;20041;-76
2024/01/20 08:38:59;;;;;;;12.38;5.82;;;0.00;99.90;;;;;;5049796;28;20059;-76
2024/01/20 08:41:25;;;;;;;19.33;8.57;;;0.10;99.90;;;;;;5079809;28;20036;-76
2024/01/20 08:43:51;;;;;;;16.60;8.55;;;0.10;99.90;;;;;;5069656;28;20133;-76
2024/01/20 08:46:17;;;;;;;13.23;6.45;;;0.30;99.90;;;;;;5063196;28;20033;-76
2024/01/20 08:48:43;;;;;;;14.50;7.30;;;0.30;99.90;;;;;;5071687;28;20067;-76
2024/01/20 08:51:09;;;;;;;13.20;8.15;;;0.30;99.90;;;;;;5057709;28;20052;-76
2024/01/20 08:53:35;;;;;;;19.52;7.82;;;0.30;99.90;;;;;;5068390;28;20061;-76
2024/01/20 08:56:01;;;;;;;19.95;7.50;;;0.40;99.90;;;;;;5076897;28;20047;-76
2024/01/20 08:58:27;;;;;;;21.00;8.25;;;0.30;99.90;;;;;;5039590;28;20076;-76
2024/01/20 09:00:52;;;;;;;15.90;7.47;;;0.30;99.90;;;;;;5054257;28;20033;-75
2024/01/20 09:03:18;;;;;;;14.02;6.43;;;0.30;99.90;;;;;;5058243;28;20048;-76
2024/01/20 09:05:44;;;;;;;23.42;7.60;;;0.40;99.90;;;;;;5064458;28;20044;-76
2024/01/20 09:08:10;;;;;;;20.45;6.38;;;0.30;99.90;;;;;;5052243;28;20053;-76
2024/01/20 09:10:36;;;;;;;16.63;6.70;;;0.40;99.90;;;;;;5038401;28;20060;-76
2024/01/20 09:13:07;;;;;;;13.95;6.28;;;0.40;99.90;;;;;;5081282;28;20037;-76
2024/01/20 09:15:32;;;;;;;13.90;5.35;;;0.40;99.90;;;;;;5070640;28;20052;-76
2024/01/20 09:17:58;;;;;;;12.07;5.88;;;0.40;99.90;;;;;;5072152;28;20114;-79
2024/01/20 09:20:24;;;;;;;17.50;7.63;;;0.50;99.90;;;;;;5040184;28;20067;-79
2024/01/20 09:22:49;;;;;;;26.17;7.95;;;0.50;99.90;;;;;;5060489;28;20088;-79
2024/01/20 09:25:16;;;;;;;26.70;6.47;;;0.50;99.90;;;;;;5096355;28;20068;-79
2024/01/20 09:27:42;;;;;;;17.27;7.47;;;0.50;99.90;;;;;;5040190;28;20040;-79
2024/01/20 09:30:09;;;;;;;21.35;8.30;;;0.60;99.90;;;;;;5079439;28;20131;-79
2024/01/20 09:32:35;;;;;;;18.00;6.75;;;0.60;99.90;;;;;;5047043;28;20742;-79
2024/01/20 09:35:02;;;;;;;13.60;6.10;;;0.60;99.90;;;;;;5062066;28;20063;-79
2024/01/20 09:37:29;;;;;;;14.98;7.10;;;0.70;99.90;;;;;;5075071;28;20053;-78
2024/01/20 09:40:00;;;;;;;22.35;8.30;;;0.70;99.90;;;;;;5067176;28;20048;-79
2024/01/20 09:42:27;;;;;;;15.05;6.57;;;0.80;99.90;;;;;;5059440;28;20044;-79
2024/01/20 09:44:53;;;;;;;16.73;6.60;;;0.80;99.90;;;;;;5047489;28;20041;-79
2024/01/20 09:47:18;;;;;;;15.52;7.25;;;0.90;99.90;;;;;;5070425;28;20040;-79
2024/01/20 09:49:45;;;;;;;13.15;5.80;;;0.90;99.90;;;;;;5062496;28;20066;-79
2024/01/20 09:52:37;;;;;;;17.95;8.70;;;0.90;99.90;;;;;;5038528;28;20045;-79
2024/01/20 09:55:06;;;;;;;17.77;8.10;;;1.00;99.90;;;;;;5058477;28;20072;-79
2024/01/20 09:57:33;;;;;;;16.70;6.85;;;1.00;99.90;;;;;;5068047;28;20476;-79
2024/01/20 10:00:02;;;;;;;6.75;4.93;;;1.00;99.90;;;;;;5078110;28;20097;-79
2024/01/20 10:02:29;;;;;;;20.15;8.15;;;1.00;99.90;;;;;;5070621;28;20045;-79
2024/01/20 10:04:58;;;;;;;20.17;5.70;;;1.00;99.90;;;;;;5071772;28;20029;-79
2024/01/20 10:07:28;;;;;;;15.63;7.05;;;1.00;99.90;;;;;;5054649;28;21524;-79
2024/01/20 10:09:54;;;;;;;14.68;6.55;;;1.00;99.90;;;;;;5021534;28;20041;-79
2024/01/20 10:12:20;;;;;;;19.48;6.93;;;1.00;99.90;;;;;;5046776;28;20039;-79
2024/01/20 10:14:45;;;;;;;11.38;6.28;;;1.00;99.90;;;;;;5038780;28;20520;-79
2024/01/20 10:17:11;;;;;;;17.48;6.30;;;1.00;99.90;;;;;;5078319;28;20824;-79
2024/01/20 10:19:38;;;;;;;12.55;5.85;;;1.10;99.90;;;;;;5038502;28;20048;-80
2024/01/20 10:22:11;;;;;;;17.10;7.25;;;1.10;99.90;;;;;;5056583;28;20051;-79
2024/01/20 10:24:46;;;;;;;16.60;7.03;;;1.10;99.90;;;;;;5019873;28;20554;-80
2024/01/20 10:27:20;;;;;;;18.10;5.95;;;1.20;99.90;;;;;;5053855;28;20495;-85
2024/01/20 10:29:46;;;;;;;23.60;8.15;;;1.20;99.90;;;;;;5019660;28;20040;-82
2024/01/20 10:32:13;;;;;;;13.23;5.90;;;1.20;99.90;;;;;;5042106;28;20049;-82
2024/01/20 10:34:39;;;;;;;18.08;7.43;;;1.20;99.90;;;;;;5035071;28;20052;-82
2024/01/20 10:37:13;;;;;;;24.35;8.02;;;1.30;99.90;;;;;;5077162;28;20051;-82
2024/01/20 10:39:44;;;;;;;17.92;6.97;;;1.40;99.90;;;;;;5065410;28;20032;-82
2024/01/20 10:42:14;;;;;;;22.00;9.48;;;1.30;99.90;;;;;;5022313;28;20076;-82
2024/01/20 10:45:06;;;;;;;14.57;7.13;;;1.40;99.90;;;;;;5057969;28;20045;-83
2024/01/20 10:47:37;;;;;;;17.73;7.10;;;1.40;99.90;;;;;;5030918;28;20045;-83
2024/01/20 10:50:08;;;;;;;15.32;6.85;;;1.40;99.90;;;;;;5049870;28;20131;-82
2024/01/20 10:52:37;;;;;;;13.50;5.53;;;1.50;99.90;;;;;;5037963;28;20048;-82
2024/01/20 10:55:04;;;;;;;13.18;6.53;;;1.60;99.90;;;;;;5046107;28;20052;-82
2024/01/20 10:57:33;;;;;;;15.27;6.93;;;1.50;99.90;;;;;;5093644;28;20048;-83
2024/01/20 11:00:00;;;;;;;13.10;5.53;;;1.50;99.90;;;;;;5062718;28;20072;-83
2024/01/20 11:02:27;;;;;;;14.23;6.43;;;1.60;99.90;;;;;;5082717;28;20053;-82
2024/01/20 11:04:53;;;;;;;17.77;8.57;;;1.60;99.90;;;;;;5056757;28;20531;-82
2024/01/20 11:07:31;;;;;;;16.17;6.88;;;1.60;99.90;;;;;;5026197;28;20049;-83
2024/01/20 11:09:58;;;;;;;12.00;7.32;;;1.70;99.90;;;;;;5041203;28;20055;-82
2024/01/20 11:12:26;;;;;;;16.88;6.63;;;1.60;99.90;;;;;;5085512;28;20045;-82
2024/01/20 11:14:53;;;;;;;18.52;8.18;;;1.70;99.90;;;;;;5071685;28;20514;-82
2024/01/20 11:17:20;;;;;;;14.93;6.43;;;1.70;99.90;;;;;;5052772;28;20049;-82
2024/01/20 11:19:46;;;;;;;19.50;6.97;;;1.70;99.90;;;;;;5056216;28;20068;-82
2024/01/20 11:22:34;;;;;;;17.50;7.50;;;1.70;99.90;;;;;;5041446;28;20067;-83
2024/01/20 11:25:05;;;;;;;16.27;6.40;;;1.70;99.90;;;;;;5041066;28;20036;-82
2024/01/20 11:27:43;;;;;;;20.92;8.60;;;1.70;99.90;;;;;;5046107;28;20044;-82
2024/01/20 11:30:09;;;;;;;13.75;7.10;;;1.80;99.90;;;;;;5058827;28;20488;-82
2024/01/20 11:32:36;;;;;;;12.43;6.85;;;1.70;99.90;;;;;;5021372;28;20051;-82
2024/01/20 11:35:05;;;;;;;14.95;6.50;;;1.70;99.90;;;;;;5052192;28;20048;-82
2024/01/20 11:37:33;;;;;;;17.48;6.55;;;1.80;99.90;;;;;;5061427;28;20079;-82
2024/01/20 11:40:07;;;;;;;16.88;6.85;;;1.80;99.90;;;;;;5065627;28;20041;-82
2024/01/20 11:42:38;;;;;;;9.70;5.28;;;1.80;99.90;;;;;;5035734;28;20041;-82
2024/01/20 11:45:04;;;;;;;12.48;6.15;;;1.90;99.90;;;;;;5057736;28;20038;-82
2024/01/20 11:47:31;;;;;;;12.82;4.63;;;1.90;99.90;;;;;;5018607;28;20144;-82
2024/01/20 11:49:57;;;;;;;14.43;6.32;;;1.90;99.90;;;;;;5039883;28;20113;-82
2024/01/20 11:52:24;;;;;;;17.48;6.32;;;2.00;99.90;;;;;;5059939;28;20124;-82
2024/01/20 11:54:50;;;;;;;16.30;8.60;;;2.00;99.90;;;;;;5059710;28;20052;-81
2024/01/20 11:57:20;;;;;;;16.17;6.30;;;2.00;99.90;;;;;;5044225;28;20396;-81
2024/01/20 11:59:46;;;;;;;16.48;6.75;;;2.10;99.90;;;;;;5024798;28;20048;-82
2024/01/20 12:02:12;;;;;;;17.13;7.18;;;2.10;99.90;;;;;;5026661;28;20033;-82
2024/01/20 12:04:38;;;;;;;15.75;6.68;;;2.20;99.90;;;;;;5010691;28;20083;-82
2024/01/20 12:07:04;;;;;;;27.95;6.93;;;2.20;99.90;;;;;;5059874;28;20037;-82
2024/01/20 12:09:30;;;;;;;15.32;6.30;;;2.20;99.90;;;;;;5008779;28;20394;-82
2024/01/20 12:11:56;;;;;;;19.52;6.72;;;2.30;99.90;;;;;;5025379;28;20624;-82
2024/01/20 12:14:22;;;;;;;12.93;5.38;;;2.30;99.90;;;;;;5056174;28;20052;-82
2024/01/20 12:16:49;;;;;;;13.10;6.22;;;2.40;99.90;;;;;;5042740;28;20044;-82
2024/01/20 12:19:16;;;;;;;19.73;7.00;;;2.40;99.90;;;;;;5058314;28;20032;-82
2024/01/20 12:21:42;;;;;;;20.48;8.27;;;2.40;99.90;;;;;;5060323;28;20091;-81
2024/01/20 12:24:12;;;;;;;14.40;6.35;;;2.50;99.90;;;;;;5029401;28;20081;-81
2024/01/20 12:26:37;;;;;;;15.73;7.22;;;2.60;99.90;;;;;;5085072;28;20048;-82
2024/01/20 12:29:03;;;;;;;22.13;6.40;;;2.60;99.90;;;;;;5060091;28;20044;-81
2024/01/20 12:31:30;;;;;;;14.80;6.80;;;2.50;99.90;;;;;;5056100;28;20078;-81
2024/01/20 12:33:56;;;;;;;16.80;5.90;;;2.60;99.90;;;;;;5042344;28;20392;-81
2024/01/20 12:36:22;;;;;;;16.38;6.30;;;2.60;99.90;;;;;;5051338;28;20142;-82
2024/01/20 12:38:48;;;;;;;22.98;7.15;;;2.60;99.90;;;;;;5042433;28;20523;-81